createdAt,value
2018-06-05T00:01:42.431Z,8.03
2018-06-05T00:04:16.680Z,6.92
2018-06-05T00:06:51.073Z,4.72
2018-06-05T00:09:25.460Z,5.70
2018-06-05T00:11:59.746Z,6.03
2018-06-05T00:14:34.118Z,5.85
2018-06-05T00:17:08.551Z,24.25
2018-06-05T00:19:42.900Z,8.95
2018-06-05T00:22:17.298Z,11.68
2018-06-05T00:24:51.512Z,6.80
2018-06-05T00:27:25.916Z,6.62
2018-06-05T00:30:00.389Z,5.28
2018-06-05T00:32:34.823Z,5.95
2018-06-05T00:35:08.885Z,5.10
2018-06-05T00:37:43.201Z,6.22
2018-06-05T00:40:17.865Z,9.90
2018-06-05T00:42:52.299Z,6.92
2018-06-05T00:45:26.711Z,5.10
2018-06-05T00:48:01.091Z,5.67
2018-06-05T00:50:35.390Z,7.17
2018-06-05T00:53:13.200Z,5.67
2018-06-05T00:55:47.320Z,10.75
2018-06-05T00:58:21.647Z,4.58
2018-06-05T01:00:55.993Z,4.28
2018-06-05T01:03:30.373Z,6.20
2018-06-05T01:06:04.685Z,4.55
2018-06-05T01:08:38.989Z,5.15
2018-06-05T01:11:13.382Z,7.87
2018-06-05T01:13:47.787Z,8.65
2018-06-05T01:16:22.110Z,6.15
2018-06-05T01:18:56.454Z,7.03
2018-06-05T01:21:30.973Z,13.15
2018-06-05T01:24:05.037Z,18.20
2018-06-05T01:26:39.456Z,12.13
2018-06-05T01:29:13.766Z,7.53
2018-06-05T01:31:47.874Z,13.58
2018-06-05T01:34:22.150Z,6.87
2018-06-05T01:36:56.588Z,7.00
2018-06-05T01:39:31.040Z,8.78
2018-06-05T01:42:10.637Z,14.40
2018-06-05T01:44:44.955Z,6.25
2018-06-05T01:47:26.141Z,5.60
2018-06-05T01:50:00.980Z,4.58
2018-06-05T01:52:35.318Z,7.00
2018-06-05T01:55:09.784Z,10.28
2018-06-05T01:57:44.087Z,6.35
2018-06-05T02:00:18.472Z,5.67
2018-06-05T02:02:52.842Z,5.92
2018-06-05T02:05:27.150Z,8.13
2018-06-05T02:08:01.607Z,9.13
2018-06-05T02:10:35.874Z,5.00
2018-06-05T02:13:10.193Z,5.30
2018-06-05T02:15:44.547Z,6.65
2018-06-05T02:18:18.799Z,44.60
2018-06-05T02:20:53.130Z,12.37
2018-06-05T02:23:27.340Z,35.55
2018-06-05T02:26:01.663Z,6.80
2018-06-05T02:28:35.930Z,6.25
2018-06-05T02:31:10.290Z,5.85
2018-06-05T02:33:44.392Z,13.50
2018-06-05T02:36:19.156Z,6.15
2018-06-05T02:38:53.437Z,5.72
2018-06-05T02:41:27.782Z,8.68
2018-06-05T02:44:02.058Z,5.97
2018-06-05T02:46:36.488Z,8.13
2018-06-05T02:49:10.588Z,5.22
2018-06-05T02:51:44.601Z,5.22
2018-06-05T02:54:18.894Z,9.55
2018-06-05T02:56:53.281Z,8.90
2018-06-05T02:59:27.704Z,8.18
2018-06-05T03:02:02.000Z,6.60
2018-06-05T03:04:36.255Z,7.85
2018-06-05T03:07:10.531Z,5.80
2018-06-05T03:09:44.880Z,7.83
2018-06-05T03:12:19.383Z,4.20
2018-06-05T03:14:53.769Z,7.37
2018-06-05T03:17:31.444Z,9.38
2018-06-05T03:20:05.827Z,22.93
2018-06-05T03:22:40.345Z,37.10
2018-06-05T03:25:14.774Z,12.10
2018-06-05T03:27:49.432Z,24.80
2018-06-05T03:30:28.556Z,15.48
2018-06-05T03:33:02.910Z,6.20
2018-06-05T03:35:37.486Z,7.22
2018-06-05T03:38:12.007Z,7.22
2018-06-05T03:40:46.516Z,7.50
2018-06-05T03:43:23.146Z,10.20
2018-06-05T03:45:57.618Z,11.00
2018-06-05T03:48:32.128Z,6.00
2018-06-05T03:51:06.589Z,9.60
2018-06-05T03:53:41.282Z,6.42
2018-06-05T03:56:15.989Z,4.97
2018-06-05T03:58:50.370Z,9.83
2018-06-05T04:01:24.430Z,13.20
2018-06-05T04:03:58.847Z,9.23
2018-06-05T04:06:33.329Z,8.88
2018-06-05T04:09:07.674Z,9.60
2018-06-05T04:11:42.183Z,6.67
2018-06-05T04:14:16.570Z,5.55
2018-06-05T04:16:51.771Z,8.45
2018-06-05T04:19:26.033Z,9.80
2018-06-05T04:22:00.377Z,17.05
2018-06-05T04:24:34.676Z,26.87
2018-06-05T04:27:08.992Z,8.40
2018-06-05T04:29:43.283Z,8.63
2018-06-05T04:32:17.575Z,7.47
2018-06-05T04:34:51.946Z,18.48
2018-06-05T04:37:30.098Z,5.87
2018-06-05T04:40:04.470Z,5.70
2018-06-05T04:42:38.833Z,8.85
2018-06-05T04:45:13.260Z,5.80
2018-06-05T04:47:48.090Z,13.95
2018-06-05T04:50:22.580Z,6.05
2018-06-05T04:52:56.958Z,6.50
2018-06-05T04:55:31.205Z,7.55
2018-06-05T04:58:05.682Z,6.75
2018-06-05T05:00:39.981Z,9.53
2018-06-05T05:03:14.361Z,8.83
2018-06-05T05:05:48.472Z,8.00
2018-06-05T05:08:22.792Z,6.97
2018-06-05T05:10:57.158Z,6.53
2018-06-05T05:13:31.444Z,10.68
2018-06-05T05:16:05.727Z,18.67
2018-06-05T05:18:40.084Z,25.80
2018-06-05T05:21:14.568Z,26.23
2018-06-05T05:23:49.000Z,13.58
2018-06-05T05:26:23.675Z,11.45
2018-06-05T05:28:58.076Z,9.15
2018-06-05T05:31:32.321Z,8.35
2018-06-05T05:34:06.662Z,7.90
2018-06-05T05:36:40.976Z,8.53
2018-06-05T05:39:15.381Z,8.25
2018-06-05T05:41:49.671Z,7.95
2018-06-05T05:44:24.136Z,7.85
2018-06-05T05:46:58.292Z,12.00
2018-06-05T05:49:32.696Z,7.92
2018-06-05T05:52:07.074Z,11.25
2018-06-05T05:54:41.459Z,6.75
2018-06-05T05:57:15.849Z,6.37
2018-06-05T05:59:50.120Z,5.72
2018-06-05T06:02:24.296Z,9.93
2018-06-05T06:04:58.827Z,5.40
2018-06-05T06:07:33.233Z,5.78
2018-06-05T06:10:07.529Z,6.10
2018-06-05T06:12:41.561Z,6.53
2018-06-05T06:15:16.084Z,6.12
2018-06-05T06:17:50.570Z,11.75
2018-06-05T06:20:25.108Z,15.20
2018-06-05T06:22:59.534Z,25.50
2018-06-05T06:25:33.873Z,7.90
2018-06-05T06:28:08.291Z,8.75
2018-06-05T06:30:42.609Z,5.67
2018-06-05T06:33:16.948Z,5.40
2018-06-05T06:35:51.352Z,7.47
2018-06-05T06:38:25.769Z,10.38
2018-06-05T06:41:00.233Z,7.00
2018-06-05T06:43:34.596Z,6.35
2018-06-05T06:46:08.697Z,8.80
2018-06-05T06:48:43.094Z,10.93
2018-06-05T06:51:17.338Z,7.62
2018-06-05T06:53:51.782Z,6.03
2018-06-05T06:56:25.972Z,4.70
2018-06-05T06:58:59.979Z,5.58
2018-06-05T07:01:34.209Z,4.17
2018-06-05T07:04:08.508Z,6.50
2018-06-05T07:06:42.865Z,6.60
2018-06-05T07:09:17.150Z,5.15
2018-06-05T07:11:51.554Z,5.70
2018-06-05T07:14:25.823Z,6.03
2018-06-05T07:17:00.070Z,4.35
2018-06-05T07:19:34.357Z,5.37
2018-06-05T07:22:08.778Z,9.05
2018-06-05T07:24:43.247Z,27.37
2018-06-05T07:27:18.745Z,6.87
2018-06-05T07:29:52.922Z,18.40
2018-06-05T07:32:27.203Z,4.33
2018-06-05T07:35:01.651Z,5.95
2018-06-05T07:37:36.027Z,4.33
2018-06-05T07:40:10.181Z,5.08
2018-06-05T07:42:44.659Z,5.70
2018-06-05T07:45:18.889Z,6.10
2018-06-05T07:47:53.225Z,3.70
2018-06-05T07:50:27.519Z,8.58
2018-06-05T07:53:01.784Z,6.35
2018-06-05T07:55:40.029Z,7.58
2018-06-05T07:58:14.646Z,4.47
2018-06-05T08:00:49.250Z,7.72
2018-06-05T08:03:23.750Z,7.42
2018-06-05T08:05:58.140Z,5.17
2018-06-05T08:08:32.542Z,5.70
2018-06-05T08:11:06.878Z,3.52
2018-06-05T08:13:41.149Z,4.08
2018-06-05T08:16:15.448Z,4.60
2018-06-05T08:18:49.801Z,5.95
2018-06-05T08:21:24.208Z,5.40
2018-06-05T08:23:58.515Z,10.18
2018-06-05T08:26:38.355Z,7.67
2018-06-05T08:29:12.630Z,4.03
2018-06-05T08:31:46.996Z,11.22
2018-06-05T08:34:21.324Z,5.03
2018-06-05T08:36:55.607Z,8.53
2018-06-05T08:39:30.206Z,5.60
2018-06-05T08:42:04.656Z,4.05
2018-06-05T08:44:38.941Z,5.37
2018-06-05T08:47:13.322Z,4.22
2018-06-05T08:49:47.780Z,5.35
2018-06-05T08:52:22.101Z,7.50
2018-06-05T08:54:56.731Z,4.00
2018-06-05T08:57:30.855Z,5.37
2018-06-05T09:00:05.286Z,8.40
2018-06-05T09:02:39.425Z,4.95
2018-06-05T09:05:13.802Z,6.70
2018-06-05T09:07:48.162Z,7.97
2018-06-05T09:10:22.498Z,6.55
2018-06-05T09:12:56.926Z,6.12
2018-06-05T09:15:31.325Z,5.90
2018-06-05T09:18:05.400Z,8.85
2018-06-05T09:20:39.715Z,7.58
2018-06-05T09:23:14.108Z,5.25
2018-06-05T09:25:48.552Z,7.15
2018-06-05T09:28:22.957Z,18.95
2018-06-05T09:30:57.387Z,16.75
2018-06-05T09:33:31.816Z,9.25
2018-06-05T09:36:06.294Z,7.53
2018-06-05T09:38:40.591Z,5.70
2018-06-05T09:41:14.917Z,7.22
2018-06-05T09:43:49.217Z,5.80
2018-06-05T09:46:23.682Z,4.75
2018-06-05T09:48:57.950Z,6.00
2018-06-05T09:51:32.289Z,5.90
2018-06-05T09:54:06.668Z,8.03
2018-06-05T09:56:40.907Z,7.08
2018-06-05T09:59:15.246Z,9.28
2018-06-05T10:01:49.552Z,7.17
2018-06-05T10:04:23.867Z,6.08
2018-06-05T10:06:58.468Z,7.03
2018-06-05T10:09:32.864Z,4.97
2018-06-05T10:12:07.191Z,12.90
2018-06-05T10:14:41.615Z,4.80
2018-06-05T10:17:16.052Z,7.05
2018-06-05T10:19:50.142Z,7.95
2018-06-05T10:22:24.494Z,6.65
2018-06-05T10:24:58.715Z,4.17
2018-06-05T10:27:33.105Z,6.05
2018-06-05T10:30:07.647Z,6.80
2018-06-05T10:32:41.741Z,10.45
2018-06-05T10:35:15.961Z,12.85
2018-06-05T10:37:50.244Z,21.95
2018-06-05T10:40:24.553Z,6.87
2018-06-05T10:42:58.928Z,6.67
2018-06-05T10:45:33.415Z,4.45
2018-06-05T10:48:07.855Z,6.55
2018-06-05T10:50:42.360Z,7.45
2018-06-05T10:53:16.773Z,6.17
2018-06-05T10:55:51.369Z,6.78
2018-06-05T10:58:25.724Z,5.53
2018-06-05T11:01:00.176Z,8.05
2018-06-05T11:03:34.670Z,5.15
2018-06-05T11:06:09.050Z,7.95
2018-06-05T11:08:43.484Z,6.33
2018-06-05T11:11:17.902Z,12.55
2018-06-05T11:13:52.265Z,5.53
2018-06-05T11:16:26.688Z,12.85
2018-06-05T11:19:01.118Z,6.17
2018-06-05T11:21:35.534Z,7.33
2018-06-05T11:24:09.841Z,6.75
2018-06-05T11:26:44.325Z,10.65
2018-06-05T11:29:18.946Z,8.18
2018-06-05T11:31:53.307Z,5.47
2018-06-05T11:34:27.393Z,8.10
2018-06-05T11:37:01.854Z,16.97
2018-06-05T11:39:36.046Z,6.03
2018-06-05T11:42:10.248Z,8.10
2018-06-05T11:44:44.753Z,7.28
2018-06-05T11:47:19.015Z,6.85
2018-06-05T11:49:53.310Z,7.22
2018-06-05T11:52:27.527Z,9.50
2018-06-05T11:55:01.834Z,6.53
2018-06-05T11:57:36.295Z,8.73
2018-06-05T12:00:10.611Z,5.37
2018-06-05T12:02:44.991Z,7.67
2018-06-05T12:05:19.422Z,7.62
2018-06-05T12:07:53.730Z,8.40
2018-06-05T12:10:28.139Z,14.23
2018-06-05T12:13:02.574Z,6.87
2018-06-05T12:15:36.876Z,16.17
2018-06-05T12:18:11.182Z,14.85
2018-06-05T12:20:45.212Z,12.03
2018-06-05T12:23:19.450Z,6.10
2018-06-05T12:25:54.010Z,7.33
2018-06-05T12:28:28.303Z,6.17
2018-06-05T12:31:02.387Z,6.65
2018-06-05T12:33:36.749Z,6.33
2018-06-05T12:36:11.013Z,15.95
2018-06-05T12:38:45.258Z,25.12
2018-06-05T12:41:19.467Z,53.10
2018-06-05T12:43:53.911Z,14.35
2018-06-05T12:46:28.220Z,6.12
2018-06-05T12:49:02.543Z,6.58
2018-06-05T12:51:36.836Z,5.60
2018-06-05T12:54:11.216Z,6.15
2018-06-05T12:56:45.259Z,6.62
2018-06-05T12:59:19.787Z,6.05
2018-06-05T13:01:54.114Z,5.53
2018-06-05T13:04:28.518Z,10.98
2018-06-05T13:07:03.011Z,7.37
2018-06-05T13:09:37.178Z,7.33
2018-06-05T13:12:11.353Z,6.15
2018-06-05T13:14:45.698Z,7.05
2018-06-05T13:17:20.040Z,6.47
2018-06-05T13:19:54.589Z,5.50
2018-06-05T13:22:29.021Z,7.93
2018-06-05T13:25:03.414Z,17.48
2018-06-05T13:27:37.836Z,10.88
2018-06-05T13:30:12.146Z,7.20
2018-06-05T13:32:46.467Z,8.20
2018-06-05T13:35:20.887Z,10.90
2018-06-05T13:37:55.278Z,11.08
2018-06-05T13:40:29.481Z,14.60
2018-06-05T13:43:03.721Z,17.55
2018-06-05T13:45:38.171Z,10.03
2018-06-05T13:48:12.496Z,9.48
2018-06-05T13:50:46.849Z,6.35
2018-06-05T13:53:21.243Z,8.18
2018-06-05T13:55:55.587Z,6.95
2018-06-05T13:58:30.099Z,7.53
2018-06-05T14:01:04.498Z,6.35
2018-06-05T14:03:38.946Z,10.13
2018-06-05T14:06:13.364Z,8.65
2018-06-05T14:08:47.810Z,6.42
2018-06-05T14:11:22.103Z,7.75
2018-06-05T14:13:56.395Z,7.22
2018-06-05T14:16:30.772Z,6.90
2018-06-05T14:19:05.098Z,7.40
2018-06-05T14:21:39.452Z,8.98
2018-06-05T14:24:13.861Z,8.30
2018-06-05T14:26:48.186Z,8.18
2018-06-05T14:29:22.553Z,15.85
2018-06-05T14:31:56.976Z,10.88
2018-06-05T14:34:31.279Z,11.83
2018-06-05T14:37:05.623Z,6.85
2018-06-05T14:39:40.142Z,29.90
2018-06-05T14:42:14.710Z,15.80
2018-06-05T14:44:49.191Z,16.02
2018-06-05T14:47:23.609Z,6.78
2018-06-05T14:49:57.924Z,7.22
2018-06-05T14:52:32.226Z,6.20
2018-06-05T14:55:06.563Z,6.00
2018-06-05T14:57:40.881Z,6.78
2018-06-05T15:00:15.203Z,6.53
2018-06-05T15:02:49.507Z,10.70
2018-06-05T15:05:23.875Z,9.28
2018-06-05T15:07:58.286Z,14.33
2018-06-05T15:10:32.754Z,8.97
2018-06-05T15:13:06.966Z,6.90
2018-06-05T15:15:41.406Z,7.53
2018-06-05T15:18:15.881Z,7.87
2018-06-05T15:20:50.366Z,9.13
2018-06-05T15:23:24.430Z,6.50
2018-06-05T15:25:58.846Z,10.23
2018-06-05T15:28:33.251Z,9.93
2018-06-05T15:31:07.571Z,7.73
2018-06-05T15:33:42.071Z,6.65
2018-06-05T15:36:16.390Z,5.97
2018-06-05T15:38:50.521Z,7.40
2018-06-05T15:41:24.867Z,7.97
2018-06-05T15:43:59.273Z,8.18
2018-06-05T15:46:33.692Z,8.93
2018-06-05T15:49:08.395Z,10.88
2018-06-05T15:51:42.932Z,9.75
2018-06-05T15:54:16.944Z,9.50
2018-06-05T15:56:51.250Z,16.93
2018-06-05T15:59:25.286Z,9.50
2018-06-05T16:01:59.498Z,6.95
2018-06-05T16:04:33.994Z,10.30
2018-06-05T16:07:08.335Z,12.90
2018-06-05T16:09:42.711Z,7.17
2018-06-05T16:12:16.998Z,7.80
2018-06-05T16:14:51.460Z,6.60
2018-06-05T16:17:25.983Z,9.00
2018-06-05T16:20:00.100Z,7.57
2018-06-05T16:22:34.844Z,7.17
2018-06-05T16:25:09.132Z,6.67
2018-06-05T16:27:43.695Z,6.17
2018-06-05T16:30:18.083Z,5.50
2018-06-05T16:32:52.474Z,8.50
2018-06-05T16:35:26.789Z,7.50
2018-06-05T16:38:01.066Z,13.93
2018-06-05T16:40:35.432Z,7.63
2018-06-05T16:43:09.855Z,21.00
2018-06-05T16:45:44.260Z,18.13
2018-06-05T16:48:18.489Z,9.83
2018-06-05T16:50:52.924Z,14.30
2018-06-05T16:53:27.256Z,15.83
2018-06-05T16:56:01.556Z,7.87
2018-06-05T16:58:35.858Z,8.77
2018-06-05T17:01:10.083Z,7.10
2018-06-05T17:03:44.644Z,5.90
2018-06-05T17:06:19.179Z,7.90
2018-06-05T17:08:53.380Z,17.80
2018-06-05T17:11:27.690Z,7.67
2018-06-05T17:14:01.903Z,7.00
2018-06-05T17:16:36.322Z,6.57
2018-06-05T17:19:10.752Z,6.80
2018-06-05T17:21:44.861Z,6.33
2018-06-05T17:24:19.087Z,8.60
2018-06-05T17:26:53.513Z,6.67
2018-06-05T17:29:28.023Z,7.97
2018-06-05T17:32:02.032Z,6.00
2018-06-05T17:34:36.392Z,6.60
2018-06-05T17:37:10.663Z,9.53
2018-06-05T17:39:45.009Z,7.90
2018-06-05T17:42:19.627Z,6.77
2018-06-05T17:44:54.069Z,10.00
2018-06-05T17:47:28.245Z,11.43
2018-06-05T17:50:02.627Z,7.33
2018-06-05T17:52:37.093Z,48.63
2018-06-05T17:55:11.174Z,6.20
2018-06-05T17:57:45.509Z,7.23
2018-06-05T18:00:19.825Z,10.30
2018-06-05T18:02:54.179Z,7.83
2018-06-05T18:05:28.564Z,7.13
2018-06-05T18:08:03.165Z,10.13
2018-06-05T18:10:37.590Z,6.87
2018-06-05T18:13:11.940Z,11.67
2018-06-05T18:15:46.356Z,8.87
2018-06-05T18:18:20.696Z,7.60
2018-06-05T18:20:55.064Z,8.47
2018-06-05T18:23:29.462Z,14.77
2018-06-05T18:26:03.695Z,8.30
2018-06-05T18:28:38.218Z,9.87
2018-06-05T18:31:12.597Z,10.90
2018-06-05T18:33:46.928Z,8.43
2018-06-05T18:36:21.287Z,9.18
2018-06-05T18:38:55.722Z,8.25
2018-06-05T18:41:29.933Z,9.30
2018-06-05T18:44:04.086Z,8.83
2018-06-05T18:46:38.278Z,23.20
2018-06-05T18:49:12.727Z,20.52
2018-06-05T18:51:46.977Z,24.18
2018-06-05T18:54:21.369Z,15.70
2018-06-05T18:56:55.623Z,16.27
2018-06-05T18:59:29.923Z,22.98
2018-06-05T19:02:04.216Z,14.55
2018-06-05T19:04:38.696Z,10.30
2018-06-05T19:07:13.023Z,18.50
2018-06-05T19:09:47.467Z,15.40
2018-06-05T19:12:21.954Z,9.23
2018-06-05T19:14:56.378Z,10.85
2018-06-05T19:17:30.757Z,11.25
2018-06-05T19:20:05.324Z,12.15
2018-06-05T19:22:39.629Z,13.25
2018-06-05T19:25:14.012Z,11.18
2018-06-05T19:27:48.055Z,11.80
2018-06-05T19:30:22.936Z,11.93
2018-06-05T19:32:57.492Z,17.62
2018-06-05T19:35:31.959Z,12.23
2018-06-05T19:38:06.245Z,20.60
2018-06-05T19:40:40.688Z,12.33
2018-06-05T19:43:15.054Z,12.82
2018-06-05T19:45:49.443Z,10.60
2018-06-05T19:48:23.625Z,12.98
2018-06-05T19:50:57.959Z,17.57
2018-06-05T19:53:32.259Z,32.38
2018-06-05T19:56:06.580Z,20.05
2018-06-05T19:58:40.957Z,18.32
2018-06-05T20:01:15.299Z,16.17
2018-06-05T20:03:49.454Z,13.08
2018-06-05T20:06:23.748Z,12.53
2018-06-05T20:08:58.164Z,11.25
2018-06-05T20:11:32.654Z,13.50
2018-06-05T20:14:07.080Z,13.18
2018-06-05T20:16:41.325Z,11.80
2018-06-05T20:19:15.353Z,19.02
2018-06-05T20:21:49.833Z,12.37
2018-06-05T20:24:24.195Z,12.33
2018-06-05T20:26:58.559Z,11.08
2018-06-05T20:29:33.145Z,12.93
2018-06-05T20:32:07.493Z,19.82
2018-06-05T20:34:42.147Z,12.05
2018-06-05T20:37:25.985Z,36.35
2018-06-05T20:40:08.147Z,53.50
2018-06-05T20:42:43.073Z,18.48
2018-06-05T20:45:17.658Z,41.05
2018-06-05T20:47:54.438Z,51.80
2018-06-05T20:50:28.902Z,54.50
2018-06-05T20:53:07.981Z,33.05
2018-06-05T20:55:43.885Z,52.20
2018-06-05T20:58:20.957Z,20.55
2018-06-05T21:01:02.497Z,40.58
2018-06-05T21:03:39.274Z,67.03
2018-06-05T21:06:20.244Z,42.13
2018-06-05T21:08:54.681Z,31.85
2018-06-05T21:11:30.419Z,48.83
2018-06-05T21:14:10.470Z,20.90
2018-06-05T21:16:45.181Z,35.00
2018-06-05T21:19:19.595Z,22.02
2018-06-05T21:21:54.042Z,14.47
2018-06-05T21:24:28.608Z,14.15
2018-06-05T21:27:03.121Z,14.68
2018-06-05T21:29:39.036Z,21.25
2018-06-05T21:32:14.243Z,15.00
2018-06-05T21:34:48.420Z,38.42
2018-06-05T21:37:22.565Z,27.15
2018-06-05T21:39:58.906Z,17.80
2018-06-05T21:42:33.855Z,21.75
2018-06-05T21:45:09.343Z,18.85
2018-06-05T21:47:44.192Z,14.05
2018-06-05T21:50:19.566Z,34.18
2018-06-05T21:52:53.969Z,18.12
2018-06-05T21:55:28.129Z,27.55
2018-06-05T21:58:03.509Z,14.87
2018-06-05T22:00:38.056Z,23.80
2018-06-05T22:03:14.640Z,15.00
2018-06-05T22:05:49.376Z,80.00
2018-06-05T22:08:24.001Z,31.10
2018-06-05T22:10:58.567Z,44.90
2018-06-05T22:13:34.088Z,25.43
2018-06-05T22:16:08.642Z,30.55
2018-06-05T22:18:43.191Z,24.92
2018-06-05T22:21:17.644Z,16.57
2018-06-05T22:23:52.258Z,15.13
2018-06-05T22:26:26.845Z,14.80
2018-06-05T22:29:01.340Z,17.00
2018-06-05T22:31:37.044Z,17.75
2018-06-05T22:34:11.624Z,16.05
2018-06-05T22:36:46.501Z,16.42
2018-06-05T22:39:22.125Z,18.27
2018-06-05T22:41:56.689Z,20.70
2018-06-05T22:44:31.992Z,22.17
2018-06-05T22:47:07.898Z,20.32
2018-06-05T22:49:42.530Z,13.50
2018-06-05T22:52:17.158Z,13.85
2018-06-05T22:54:51.685Z,21.12
2018-06-05T22:57:26.327Z,18.40
2018-06-05T23:00:00.906Z,21.17
2018-06-05T23:02:35.404Z,17.57
2018-06-05T23:05:09.885Z,21.25
2018-06-05T23:07:44.280Z,19.85
2018-06-05T23:10:18.949Z,15.18
2018-06-05T23:12:55.094Z,18.23
2018-06-05T23:15:30.005Z,19.80
2018-06-05T23:18:06.827Z,62.88
2018-06-05T23:20:44.452Z,39.53
2018-06-05T23:23:19.022Z,30.82
2018-06-05T23:25:56.751Z,76.20
2018-06-05T23:28:33.952Z,24.37
2018-06-05T23:31:09.935Z,39.23
2018-06-05T23:33:48.223Z,57.73
2018-06-05T23:36:23.295Z,48.33
2018-06-05T23:38:59.365Z,45.33
2018-06-05T23:41:37.459Z,62.93
2018-06-05T23:44:14.368Z,74.55
2018-06-05T23:46:52.475Z,46.75
2018-06-05T23:49:28.651Z,55.08
2018-06-05T23:52:08.403Z,23.50
2018-06-05T23:54:43.055Z,25.80
2018-06-05T23:57:18.638Z,26.57
2018-06-05T23:59:53.281Z,70.15
